Time;durP1;ratioP1;P1;durP2;ratioP2;P2;SDS_P1;SDS_P2;PMS_P1;PMS_P2;Temp;Humidity;BMP_temperature;BMP_pressure;BME280_temperature;BME280_humidity;BME280_pressure;Samples;Min_cycle;Max_cycle;Signal;HPM_P1;HPM_P2
2023/06/14 00:01:16;;;;;;;9.60;3.10;;;;;;;-144.73;97.29;54091.63;5049949;28;20024;-71
2023/06/14 00:03:42;;;;;;;4.43;2.80;;;;;;;-144.73;99.45;54108.03;5048813;28;20068;-72
2023/06/14 00:06:07;;;;;;;9.75;3.65;;;;;;;-144.73;98.51;54118.31;5049463;28;20020;-71
2023/06/14 00:08:33;;;;;;;9.23;4.50;;;;;;;-144.73;99.54;54116.25;5048987;28;20033;-72
2023/06/14 00:10:58;;;;;;;19.15;3.80;;;;;;;-144.73;99.45;54145.00;5050365;28;20104;-71
2023/06/14 00:13:24;;;;;;;16.95;4.72;;;;;;;-144.73;100.00;54128.56;5048761;28;20040;-71
2023/06/14 00:15:49;;;;;;;11.75;4.25;;;;;;;-144.73;100.00;54171.66;5049643;28;20035;-71
2023/06/14 00:18:14;;;;;;;8.30;3.42;;;;;;;-144.73;100.00;54173.72;5047557;28;20044;-71
2023/06/14 00:20:41;;;;;;;15.82;4.05;;;;;;;-144.73;98.86;54147.03;5067499;28;20028;-71
2023/06/14 00:23:07;;;;;;;7.30;3.55;;;;;;;-144.73;98.91;54128.56;5067362;28;20491;-71
2023/06/14 00:25:32;;;;;;;13.30;4.05;;;;;;;-144.73;100.00;54128.56;5049397;28;20069;-71
2023/06/14 00:27:57;;;;;;;17.58;4.22;;;;;;;-144.73;100.00;54120.34;5045884;28;20048;-71
2023/06/14 00:30:23;;;;;;;9.93;3.08;;;;;;;-144.73;100.00;54120.34;5066298;28;20016;-71
2023/06/14 00:32:49;;;;;;;7.43;3.88;;;;;;;-144.73;100.00;54181.94;5067078;28;20116;-71
2023/06/14 00:35:15;;;;;;;12.90;3.92;;;;;;;-144.73;100.00;54145.00;5049165;28;20067;-71
2023/06/14 00:37:41;;;;;;;6.90;3.03;;;;;;;-144.73;100.00;54112.16;5067087;28;20055;-71
2023/06/14 00:40:06;;;;;;;10.25;3.58;;;;;;;-144.73;100.00;54157.31;5049440;28;20085;-71
2023/06/14 00:42:32;;;;;;;11.38;3.70;;;;;;;-144.73;100.00;54145.00;5048764;28;20060;-71
2023/06/14 00:44:58;;;;;;;6.00;2.92;;;;;;;-144.73;100.00;54161.41;5049796;28;20025;-71
2023/06/14 00:47:23;;;;;;;8.50;3.47;;;;;;;-144.73;100.00;54177.81;5048513;28;20032;-71
2023/06/14 00:49:53;;;;;;;12.85;3.42;;;;;;;-144.73;100.00;54116.25;5066745;28;20041;-71
2023/06/14 00:52:19;;;;;;;13.00;3.60;;;;;;;-144.73;100.00;54200.41;5048914;28;20028;-71
2023/06/14 00:54:44;;;;;;;6.93;3.40;;;;;;;-144.73;100.00;54177.81;5049581;28;20021;-71
2023/06/14 00:57:11;;;;;;;9.25;3.47;;;;;;;-144.73;100.00;54145.00;5066627;28;20115;-70
2023/06/14 00:59:48;;;;;;;7.07;3.28;;;;;;;-144.73;100.00;54204.50;5047605;28;20074;-70
2023/06/14 01:02:17;;;;;;;7.75;3.28;;;;;;;-144.73;100.00;54157.31;5046845;28;20035;-71
2023/06/14 01:04:47;;;;;;;14.68;3.70;;;;;;;-144.73;100.00;54153.19;5048083;28;20365;-71
2023/06/14 01:07:22;;;;;;;7.93;3.85;;;;;;;-144.73;100.00;54145.00;5048888;28;20033;-70
2023/06/14 01:10:12;;;;;;;5.88;3.28;;;;;;;-144.73;100.00;54173.72;5049279;28;20020;-71
2023/06/14 01:13:02;;;;;;;9.20;3.75;;;;;;;-144.73;100.00;54145.00;5046725;28;20040;-71
2023/06/14 01:15:31;;;;;;;9.88;3.63;;;;;;;-144.73;100.00;54145.00;5053090;28;20054;-71
2023/06/14 01:18:02;;;;;;;11.23;3.22;;;;;;;-144.73;100.00;54149.09;5051403;28;20036;-71
2023/06/14 01:20:29;;;;;;;;;;;;;;;-144.73;100.00;54161.41;5056936;28;20475;-71
2023/06/14 01:22:55;;;;;;;11.65;3.50;;;;;;;-144.73;100.00;54153.19;5044943;28;19920;-71
2023/06/14 01:25:22;;;;;;;6.53;3.60;;;;;;;-144.73;100.00;54108.03;5067287;28;20020;-71
2023/06/14 01:28:01;;;;;;;9.85;3.15;;;;;;;-144.73;100.00;54194.25;5061665;28;20547;-71
2023/06/14 01:30:26;;;;;;;18.25;4.05;;;;;;;-144.73;100.00;54177.81;5054641;28;20029;-71
2023/06/14 01:32:54;;;;;;;8.90;3.45;;;;;;;-144.73;100.00;54116.25;5053215;28;20051;-71
2023/06/14 01:35:20;;;;;;;13.93;3.58;;;;;;;-144.73;100.00;54165.50;5073570;28;20264;-71
2023/06/14 01:37:48;;;;;;;9.48;4.15;;;;;;;-144.73;100.00;54165.50;5053735;28;20041;-71
2023/06/14 01:40:15;;;;;;;6.97;3.60;;;;;;;-144.73;100.00;54120.34;5043725;28;20558;-70
2023/06/14 01:42:41;;;;;;;13.77;3.25;;;;;;;-144.73;100.00;54151.16;5054411;28;20115;-71
2023/06/14 01:45:08;;;;;;;9.75;3.90;;;;;;;-144.73;100.00;54153.19;5047888;28;20038;-71
2023/06/14 01:47:35;;;;;;;12.40;3.88;;;;;;;-144.73;100.00;54095.72;5055048;28;20039;-70
2023/06/14 01:50:02;;;;;;;14.07;4.07;;;;;;;-144.73;100.00;54145.00;5056061;28;20487;-71
2023/06/14 01:52:27;;;;;;;6.80;3.70;;;;;;;-144.73;100.00;54157.31;5069201;28;20033;-70
2023/06/14 01:54:53;;;;;;;9.02;3.78;;;;;;;-144.73;100.00;54186.03;5062828;28;20027;-70
2023/06/14 01:57:20;;;;;;;11.68;4.10;;;;;;;-144.73;100.00;54161.41;5054115;28;20446;-71
2023/06/14 01:59:48;;;;;;;10.40;3.85;;;;;;;-144.73;100.00;54161.41;5062831;28;20070;-70
2023/06/14 02:02:14;;;;;;;11.35;4.10;;;;;;;-144.73;100.00;54157.31;5060934;28;20404;-71
2023/06/14 02:04:40;;;;;;;8.38;3.40;;;;;;;-144.73;100.00;54145.00;5045037;28;20040;-70
2023/06/14 02:07:06;;;;;;;12.63;4.50;;;;;;;-144.73;100.00;54116.25;5053796;28;20423;-71
2023/06/14 02:09:31;;;;;;;10.27;3.75;;;;;;;-144.73;100.00;54128.56;5052883;28;20093;-71
2023/06/14 02:11:56;;;;;;;8.77;4.00;;;;;;;-144.73;100.00;54165.50;5066354;28;20112;-71
2023/06/14 02:14:23;;;;;;;9.30;4.10;;;;;;;-144.73;100.00;54153.19;5052130;28;20051;-71
2023/06/14 02:16:49;;;;;;;15.13;4.55;;;;;;;-144.73;100.00;54120.34;5071250;28;20123;-71
2023/06/14 02:19:16;;;;;;;11.88;3.83;;;;;;;-144.73;100.00;54153.19;5052948;28;20032;-71
2023/06/14 02:21:42;;;;;;;12.82;3.92;;;;;;;-144.73;100.00;54157.31;5052137;28;20017;-71
2023/06/14 02:24:07;;;;;;;10.65;4.25;;;;;;;-144.73;100.00;54136.78;5063384;28;20028;-71
2023/06/14 02:26:32;;;;;;;11.93;3.75;;;;;;;-144.73;100.00;54120.34;5061933;28;20024;-71
2023/06/14 02:28:58;;;;;;;14.07;4.70;;;;;;;-144.73;100.00;54157.31;5061421;28;20036;-71
2023/06/14 02:31:23;;;;;;;13.45;3.80;;;;;;;-144.73;100.00;54206.56;5073846;28;20463;-71
2023/06/14 02:33:48;;;;;;;13.30;4.18;;;;;;;-144.73;100.00;54173.72;5053592;28;20029;-71
2023/06/14 02:36:14;;;;;;;9.77;4.30;;;;;;;-144.73;100.00;54149.09;5053128;28;20016;-71
2023/06/14 02:38:39;;;;;;;10.65;3.97;;;;;;;-144.73;100.00;54169.63;5051869;28;20029;-71
2023/06/14 02:41:05;;;;;;;8.68;4.20;;;;;;;-144.73;100.00;54165.50;5053556;28;20016;-71
2023/06/14 02:43:31;;;;;;;14.18;4.00;;;;;;;-144.73;100.00;54198.34;5051992;28;20021;-71
2023/06/14 02:45:56;;;;;;;12.18;3.92;;;;;;;-144.73;100.00;54167.56;5049636;28;20028;-71
2023/06/14 02:48:21;;;;;;;9.48;4.95;;;;;;;-144.73;100.00;54173.72;5062663;28;20036;-71
2023/06/14 02:50:47;;;;;;;13.05;4.55;;;;;;;-144.73;100.00;54145.00;5071598;28;20051;-71
2023/06/14 02:53:12;;;;;;;17.60;4.22;;;;;;;-144.73;100.00;54165.50;5070140;28;20134;-71
2023/06/14 02:55:39;;;;;;;12.77;3.92;;;;;;;-144.73;100.00;54169.63;5070487;28;20029;-71
2023/06/14 02:58:05;;;;;;;13.18;4.38;;;;;;;-144.73;100.00;54161.41;5052406;28;20067;-71
2023/06/14 03:00:30;;;;;;;8.68;4.45;;;;;;;-144.73;100.00;54169.63;5052133;28;20049;-71
2023/06/14 03:02:56;;;;;;;11.88;4.32;;;;;;;-144.73;100.00;54116.25;5052441;28;20039;-71
2023/06/14 03:05:22;;;;;;;15.32;4.00;;;;;;;-144.73;100.00;54149.09;5051056;28;20071;-71
2023/06/14 03:07:50;;;;;;;11.77;4.90;;;;;;;-144.73;100.00;54177.81;5051902;28;20036;-70
2023/06/14 03:10:15;;;;;;;14.07;4.30;;;;;;;-144.73;100.00;54161.41;5070691;28;20025;-70
2023/06/14 03:12:41;;;;;;;9.18;4.57;;;;;;;-144.73;100.00;54206.56;5051498;28;20112;-70
2023/06/14 03:15:07;;;;;;;8.82;4.45;;;;;;;-144.73;100.00;54157.31;5070134;28;20078;-70
2023/06/14 03:17:33;;;;;;;13.35;4.22;;;;;;;-144.73;100.00;54165.50;5069783;28;20064;-70
2023/06/14 03:20:00;;;;;;;13.13;3.95;;;;;;;-144.73;100.00;54165.50;5052635;28;20013;-70
2023/06/14 03:22:25;;;;;;;9.30;4.47;;;;;;;-144.73;100.00;54120.34;5052062;28;20036;-70
2023/06/14 03:24:52;;;;;;;11.02;4.80;;;;;;;-144.73;100.00;54194.25;5070162;28;20518;-70
2023/06/14 03:27:18;;;;;;;15.20;4.25;;;;;;;-144.73;100.00;54188.09;5051223;28;20044;-71
2023/06/14 03:29:44;;;;;;;11.13;4.13;;;;;;;-144.73;100.00;54155.25;5050980;28;20547;-71
2023/06/14 03:32:09;;;;;;;10.80;4.70;;;;;;;-144.73;100.00;54132.69;5070093;28;20158;-71
2023/06/14 03:34:35;;;;;;;7.53;4.38;;;;;;;-144.73;100.00;54190.13;5061438;28;20391;-69
2023/06/14 03:37:00;;;;;;;11.27;4.20;;;;;;;-144.73;100.00;54218.88;5071056;28;20037;-69
2023/06/14 03:39:26;;;;;;;12.90;4.72;;;;;;;-144.73;100.00;54177.81;5058360;28;20027;-69
2023/06/14 03:41:51;;;;;;;15.82;4.85;;;;;;;-144.73;100.00;54161.41;5070716;28;20036;-69
2023/06/14 03:44:18;;;;;;;14.60;3.92;;;;;;;-144.73;100.00;54196.28;5066539;28;20029;-69
2023/06/14 03:46:47;;;;;;;10.45;4.50;;;;;;;-144.73;100.00;54190.13;5070382;28;20198;-70
2023/06/14 03:49:12;;;;;;;13.90;4.10;;;;;;;-144.73;100.00;54186.03;5071237;28;20024;-69
2023/06/14 03:51:39;;;;;;;10.93;4.25;;;;;;;-144.73;100.00;54153.19;5044466;28;20021;-69
2023/06/14 03:54:05;;;;;;;13.25;4.72;;;;;;;-144.73;100.00;54194.25;5070919;28;20012;-70
2023/06/14 03:56:30;;;;;;;16.15;5.35;;;;;;;-144.73;100.00;54202.44;5052072;28;20036;-70
2023/06/14 03:58:56;;;;;;;17.25;4.95;;;;;;;-144.73;100.00;54177.81;5053591;28;20048;-69
2023/06/14 04:01:25;;;;;;;14.63;5.05;;;;;;;-144.73;100.00;54165.50;5071150;28;20025;-69
2023/06/14 04:03:50;;;;;;;15.05;5.00;;;;;;;-144.73;100.00;54177.81;5052570;28;20036;-69
2023/06/14 04:06:19;;;;;;;12.05;4.28;;;;;;;-144.73;100.00;54206.56;5049307;28;20100;-68
2023/06/14 04:08:45;;;;;;;13.82;4.90;;;;;;;-144.73;100.00;54181.94;5052337;28;20020;-69
2023/06/14 04:11:11;;;;;;;7.63;4.00;;;;;;;-144.73;100.00;54202.44;5070864;28;20031;-69
2023/06/14 04:13:37;;;;;;;11.73;5.40;;;;;;;-144.73;100.00;54194.25;5050603;28;20033;-69
2023/06/14 04:16:03;;;;;;;7.68;4.22;;;;;;;-144.73;100.00;54202.44;5070748;28;20024;-70
2023/06/14 04:18:28;;;;;;;14.00;5.20;;;;;;;-144.73;100.00;54210.66;5069971;28;20033;-69
2023/06/14 04:20:54;;;;;;;15.57;5.03;;;;;;;-144.73;100.00;54194.25;5067304;28;20074;-69
2023/06/14 04:23:19;;;;;;;14.38;4.85;;;;;;;-144.73;100.00;54186.03;5049204;28;20082;-69
2023/06/14 04:25:45;;;;;;;11.65;4.53;;;;;;;-144.73;100.00;54159.34;5069820;28;20012;-69
2023/06/14 04:28:18;;;;;;;12.55;4.15;;;;;;;-144.73;100.00;54169.63;5055159;28;20098;-69
2023/06/14 04:30:44;;;;;;;15.45;4.18;;;;;;;-144.73;100.00;54186.03;5063193;28;20021;-69
2023/06/14 04:33:10;;;;;;;14.27;4.93;;;;;;;-144.73;100.00;54194.25;5070062;28;20110;-69
2023/06/14 04:35:37;;;;;;;17.00;4.57;;;;;;;-144.73;100.00;54173.72;5052666;28;20467;-69
2023/06/14 04:38:04;;;;;;;16.40;4.47;;;;;;;-144.73;100.00;54157.31;5048875;28;20036;-70
2023/06/14 04:40:31;;;;;;;18.75;4.93;;;;;;;-144.73;100.00;54200.41;5052429;28;20576;-69
2023/06/14 04:42:57;;;;;;;9.75;3.92;;;;;;;-144.73;100.00;54157.31;5050731;28;20032;-69
2023/06/14 04:45:23;;;;;;;15.45;4.88;;;;;;;-144.73;100.00;54177.81;5051992;28;20025;-70
2023/06/14 04:47:50;;;;;;;17.10;4.88;;;;;;;-144.73;100.00;54190.13;5069481;28;20036;-69
2023/06/14 04:50:18;;;;;;;27.77;10.65;;;;;;;-144.73;100.00;54165.50;5060451;28;20024;-69
2023/06/14 04:52:43;;;;;;;13.82;4.72;;;;;;;-144.73;100.00;54157.31;5052874;28;20032;-69
2023/06/14 04:55:09;;;;;;;16.17;4.82;;;;;;;-144.73;100.00;54210.66;5048895;28;20024;-69
2023/06/14 04:57:34;;;;;;;10.50;4.72;;;;;;;-144.73;100.00;54177.81;5058031;28;20035;-69
2023/06/14 05:00:04;;;;;;;17.63;4.75;;;;;;;-144.73;100.00;54177.81;5070764;28;20039;-69
2023/06/14 05:02:30;;;;;;;17.13;4.70;;;;;;;-144.73;100.00;54145.00;5069478;28;20040;-70
2023/06/14 05:04:57;;;;;;;20.35;4.63;;;;;;;-144.73;100.00;54186.03;5070242;28;20027;-69
2023/06/14 05:07:23;;;;;;;10.70;4.82;;;;;;;-144.73;100.00;54153.19;5069492;28;20033;-71
2023/06/14 05:09:49;;;;;;;13.57;4.40;;;;;;;-144.73;100.00;54188.09;5069806;28;20028;-70
2023/06/14 05:12:18;;;;;;;10.05;4.07;;;;;;;-144.73;100.00;54165.50;5048243;28;20557;-70
2023/06/14 05:14:43;;;;;;;11.82;4.57;;;;;;;-144.73;100.00;54190.13;5050799;28;20387;-70
2023/06/14 05:17:09;;;;;;;11.48;4.30;;;;;;;-144.73;100.00;54202.44;5054446;28;20094;-70
2023/06/14 05:19:34;;;;;;;11.07;4.05;;;;;;;-144.73;100.00;54145.00;5073903;28;20028;-70
2023/06/14 05:22:02;;;;;;;8.68;4.57;;;;;;;-144.73;100.00;54190.13;5072820;28;20040;-69
2023/06/14 05:24:30;;;;;;;9.27;3.85;;;;;;;-144.73;100.00;54161.41;5073603;28;20031;-70
2023/06/14 05:26:55;;;;;;;19.67;4.13;;;;;;;-144.73;100.00;54194.25;5055852;28;20036;-70
2023/06/14 05:29:21;;;;;;;9.27;3.95;;;;;;;-144.73;100.00;54169.63;5074122;28;20131;-70
2023/06/14 05:31:46;;;;;;;21.52;5.63;;;;;;;-144.73;100.00;54218.88;5054193;28;20037;-70
2023/06/14 05:34:11;;;;;;;11.35;4.63;;;;;;;-144.73;98.61;54173.72;5052626;28;20029;-69
2023/06/14 05:36:37;;;;;;;13.77;4.38;;;;;;;-144.73;97.73;54175.78;5065801;28;20017;-70
2023/06/14 05:39:02;;;;;;;7.07;4.03;;;;;;;-144.73;96.08;54194.25;5073699;28;20035;-70
2023/06/14 05:41:28;;;;;;;19.85;4.65;;;;;;;-144.73;94.37;54165.50;5058840;28;20015;-70
2023/06/14 05:43:55;;;;;;;15.60;4.22;;;;;;;-144.73;94.53;54161.41;5073651;28;20099;-70
2023/06/14 05:46:25;;;;;;;8.82;5.20;;;;;;;-144.73;94.62;54225.03;5053170;28;20079;-70
2023/06/14 05:48:54;;;;;;;20.35;4.07;;;;;;;-144.73;92.37;54151.16;5073222;28;20043;-70
2023/06/14 05:51:19;;;;;;;15.88;4.28;;;;;;;-144.73;92.39;54206.56;5056341;28;20042;-70
2023/06/14 05:53:48;;;;;;;12.02;4.15;;;;;;;-144.73;91.08;54177.81;5054355;28;20028;-70
2023/06/14 05:56:15;;;;;;;19.73;4.85;;;;;;;-144.73;90.98;54169.63;5054880;28;20016;-70
2023/06/14 05:58:41;;;;;;;21.83;4.25;;;;;;;-144.73;89.01;54198.34;5072513;28;20036;-70
2023/06/14 06:01:06;;;;;;;13.90;3.83;;;;;;;-144.73;87.92;54181.94;5073452;28;20029;-70
2023/06/14 06:03:32;;;;;;;15.38;3.88;;;;;;;-144.73;87.58;54210.66;5051289;28;20400;-70
2023/06/14 06:05:58;;;;;;;12.00;3.38;;;;;;;-144.73;86.04;54147.03;5059284;28;20391;-71
2023/06/14 06:08:23;;;;;;;19.63;4.00;;;;;;;-144.73;85.67;54188.09;5051247;28;20037;-71
2023/06/14 06:10:48;;;;;;;12.93;5.38;;;;;;;-144.73;85.69;54171.66;5059223;28;20078;-71
2023/06/14 06:13:13;;;;;;;37.90;21.63;;;;;;;-144.73;84.23;54161.41;5058340;28;20037;-69
2023/06/14 06:15:39;;;;;;;13.68;3.97;;;;;;;-144.73;83.45;54173.72;5073413;28;20032;-69
2023/06/14 06:18:04;;;;;;;17.73;3.50;;;;;;;-144.73;83.63;54198.34;5053822;28;20066;-69
2023/06/14 06:20:31;;;;;;;9.40;3.40;;;;;;;-144.73;83.25;54181.94;5054993;28;20471;-70
2023/06/14 06:23:00;;;;;;;10.93;3.85;;;;;;;-144.73;84.09;54161.41;5054114;28;20042;-70
2023/06/14 06:25:26;;;;;;;11.93;3.85;;;;;;;-144.73;82.58;54198.34;5072698;28;20024;-70
2023/06/14 06:27:53;;;;;;;6.72;3.83;;;;;;;-144.73;82.18;54177.81;5053643;28;20040;-70
2023/06/14 06:30:19;;;;;;;19.48;3.65;;;;;;;-144.73;81.68;54171.66;5057986;28;20040;-70
2023/06/14 06:32:45;;;;;;;12.13;3.50;;;;;;;-144.73;80.93;54210.66;5052960;28;20033;-69
2023/06/14 06:35:14;;;;;;;7.80;3.05;;;;;;;-144.73;79.34;54169.63;5050106;28;20025;-69
2023/06/14 06:37:41;;;;;;;11.68;3.58;;;;;;;-144.73;79.07;54159.34;5049766;28;20040;-69
2023/06/14 06:40:08;;;;;;;9.95;3.42;;;;;;;-144.73;75.27;54173.72;5053203;28;20047;-70
2023/06/14 06:42:34;;;;;;;7.50;3.30;;;;;;;-144.73;74.65;54165.50;5052630;28;20041;-69
2023/06/14 06:44:59;;;;;;;10.98;3.90;;;;;;;-144.73;74.35;54157.31;5053144;28;20032;-68
2023/06/14 06:47:25;;;;;;;9.07;3.03;;;;;;;-144.73;74.67;54177.81;5052818;28;20033;-69
2023/06/14 06:49:50;;;;;;;12.88;3.33;;;;;;;-144.73;72.78;54157.31;5053667;28;20028;-69
2023/06/14 06:52:16;;;;;;;13.85;3.35;;;;;;;-144.73;71.61;54149.09;5055707;28;20042;-69
2023/06/14 06:54:41;;;;;;;10.52;3.20;;;;;;;-144.73;70.39;54149.09;5061216;28;20029;-69
2023/06/14 06:57:07;;;;;;;7.50;2.92;;;;;;;-144.73;71.85;54161.41;5052656;28;20044;-68
2023/06/14 06:59:33;;;;;;;6.25;2.95;;;;;;;-144.73;72.14;54177.81;5052930;28;20020;-68
2023/06/14 07:01:58;;;;;;;6.93;2.63;;;;;;;-144.73;68.35;54145.00;5052387;28;20059;-68
2023/06/14 07:04:24;;;;;;;8.75;2.85;;;;;;;-144.73;67.64;54169.63;5052852;28;20054;-68
2023/06/14 07:06:49;;;;;;;5.72;2.70;;;;;;;-144.73;67.81;54179.88;5052527;28;20047;-68
2023/06/14 07:09:15;;;;;;;9.77;2.97;;;;;;;-144.73;66.06;54157.31;5052859;28;20138;-69
2023/06/14 07:11:42;;;;;;;12.10;2.92;;;;;;;-144.73;66.64;54153.19;5052153;28;20031;-69
2023/06/14 07:14:08;;;;;;;4.90;2.53;;;;;;;-144.73;66.05;54161.41;5052068;28;20104;-69
2023/06/14 07:16:33;;;;;;;5.72;2.35;;;;;;;-144.73;65.75;54161.41;5051601;28;20115;-69
2023/06/14 07:19:00;;;;;;;16.67;2.30;;;;;;;-144.73;64.70;54212.72;5052617;28;20017;-69
2023/06/14 07:21:26;;;;;;;8.98;2.65;;;;;;;-144.73;64.15;54157.31;5051507;28;20020;-69
2023/06/14 07:23:52;;;;;;;21.02;2.92;;;;;;;-144.73;63.92;54106.00;5052508;28;20020;-68
2023/06/14 07:26:18;;;;;;;6.28;2.40;;;;;;;-144.73;62.18;54169.63;5052644;28;20116;-68
2023/06/14 07:28:44;;;;;;;5.95;2.20;;;;;;;-144.73;61.76;54116.25;5051554;28;20111;-70
2023/06/14 07:31:10;;;;;;;11.20;2.65;;;;;;;-144.73;61.30;54112.16;5052573;28;20551;-72
2023/06/14 07:33:36;;;;;;;5.15;2.45;;;;;;;-144.73;62.10;54157.31;5051674;28;20111;-70
2023/06/14 07:36:02;;;;;;;16.80;6.82;;;;;;;-144.73;61.08;54126.53;5052413;28;20022;-70
2023/06/14 07:38:28;;;;;;;7.30;3.53;;;;;;;-144.73;61.53;54085.47;5069422;28;20039;-70
2023/06/14 07:40:53;;;;;;;6.38;3.20;;;;;;;-144.73;59.96;54116.25;5052833;28;20020;-71
2023/06/14 07:43:19;;;;;;;6.55;2.45;;;;;;;-144.73;59.21;54149.09;5051420;28;20033;-70
2023/06/14 07:45:45;;;;;;;4.47;2.42;;;;;;;-144.73;58.97;54099.84;5052302;28;20024;-70
2023/06/14 07:48:11;;;;;;;8.13;2.85;;;;;;;-144.73;58.17;54128.56;5051991;28;20043;-71
2023/06/14 07:50:36;;;;;;;13.60;2.58;;;;;;;-144.73;57.10;54177.81;5051843;28;20028;-71
2023/06/14 07:53:02;;;;;;;9.75;2.90;;;;;;;-144.73;56.97;54132.69;5051407;28;20503;-71
2023/06/14 07:55:28;;;;;;;12.65;2.38;;;;;;;-144.73;56.15;54145.00;5052055;28;20020;-71
2023/06/14 07:57:54;;;;;;;12.40;2.85;;;;;;;-144.73;56.57;54079.31;5051457;28;20028;-70
2023/06/14 08:00:26;;;;;;;19.63;2.83;;;;;;;-144.73;57.12;54093.69;5086228;27;20445;-71
2023/06/14 08:02:58;;;;;;;15.50;2.72;;;;;;;-144.73;55.24;54128.56;5040275;28;20053;-71
2023/06/14 08:05:23;;;;;;;13.68;3.42;;;;;;;-144.73;55.34;54145.00;5026313;28;20026;-71
2023/06/14 08:07:49;;;;;;;12.52;3.10;;;;;;;-144.73;55.87;54126.53;5049248;28;20033;-71
2023/06/14 08:10:14;;;;;;;20.38;2.95;;;;;;;-144.73;53.76;54075.22;5048816;28;20025;-71
2023/06/14 08:12:40;;;;;;;5.10;2.78;;;;;;;-144.73;51.52;54095.72;5064277;28;20036;-71
2023/06/14 08:15:05;;;;;;;7.03;2.40;;;;;;;-144.73;51.27;54085.47;5048069;28;20028;-72
2023/06/14 08:17:31;;;;;;;7.30;2.17;;;;;;;-144.73;50.75;54091.63;5048234;28;20045;-72
2023/06/14 08:19:57;;;;;;;14.05;4.15;;;;;;;-144.73;51.38;54108.03;5047710;28;20067;-72
2023/06/14 08:22:24;;;;;;;7.93;2.95;;;;;;;-144.73;50.79;54120.34;5047625;28;20045;-71
2023/06/14 08:24:51;;;;;;;5.95;2.30;;;;;;;-144.73;50.64;54095.72;5065914;28;20033;-71
2023/06/14 08:27:16;;;;;;;11.70;2.72;;;;;;;-144.73;51.07;54087.53;5047399;28;20029;-72
2023/06/14 08:29:42;;;;;;;16.95;2.80;;;;;;;-144.73;50.50;54071.09;5048171;28;20418;-71
2023/06/14 08:32:07;;;;;;;20.67;3.75;;;;;;;-144.73;50.43;54075.22;5064262;28;20041;-71
2023/06/14 08:34:32;;;;;;;8.98;2.92;;;;;;;-144.73;50.24;54124.47;5047894;28;20036;-72
2023/06/14 08:36:58;;;;;;;22.25;4.55;;;;;;;-144.73;50.43;54095.72;5065447;28;20037;-72
2023/06/14 08:39:23;;;;;;;11.32;2.90;;;;;;;-144.73;51.22;54071.09;5047355;28;20021;-72
2023/06/14 08:41:50;;;;;;;7.03;3.08;;;;;;;-144.73;51.82;54097.78;5047003;28;20036;-72
2023/06/14 08:44:16;;;;;;;11.77;2.80;;;;;;;-144.73;50.86;54083.41;5048291;28;20478;-71
2023/06/14 08:46:42;;;;;;;8.43;2.88;;;;;;;-144.73;49.11;54083.41;5064497;28;20395;-71
2023/06/14 08:49:11;;;;;;;15.88;4.05;;;;;;;-144.73;48.60;54087.53;5047426;28;20507;-72
2023/06/14 08:51:37;;;;;;;13.13;3.45;;;;;;;-144.73;48.59;54083.41;5047435;28;20390;-71
2023/06/14 08:54:03;;;;;;;13.70;2.60;;;;;;;-144.73;48.86;54112.16;5047691;28;20025;-71
2023/06/14 08:56:30;;;;;;;18.98;3.38;;;;;;;-144.73;48.16;54071.09;5063040;28;20020;-72
2023/06/14 08:59:00;;;;;;;16.17;3.70;;;;;;;-144.73;48.13;54079.31;5085723;28;20024;-71
2023/06/14 09:01:26;;;;;;;11.93;2.70;;;;;;;-144.73;49.19;54124.47;5066732;28;20032;-72
2023/06/14 09:03:54;;;;;;;8.98;2.85;;;;;;;-144.73;47.60;54073.16;5067298;28;20067;-72
2023/06/14 09:06:22;;;;;;;5.22;3.00;;;;;;;-144.73;47.25;54136.78;5067566;28;20032;-72
2023/06/14 09:08:48;;;;;;;13.32;3.60;;;;;;;-144.73;48.01;54095.72;5056159;28;20028;-72
2023/06/14 09:11:16;;;;;;;7.25;2.85;;;;;;;-144.73;46.87;54112.16;5037651;28;20044;-72
2023/06/14 09:13:42;;;;;;;13.00;3.33;;;;;;;-144.73;47.15;54116.25;5033252;28;20037;-71
2023/06/14 09:16:08;;;;;;;9.23;3.20;;;;;;;-144.73;47.56;54095.72;5051215;28;20021;-71
2023/06/14 09:18:35;;;;;;;9.40;2.90;;;;;;;-144.73;47.97;54067.00;5032663;28;20029;-71
2023/06/14 09:21:00;;;;;;;19.77;2.80;;;;;;;-144.73;47.33;54087.53;5051376;28;20037;-71
2023/06/14 09:23:26;;;;;;;8.88;3.40;;;;;;;-144.73;45.92;54103.94;5032732;28;20388;-71
2023/06/14 09:25:51;;;;;;;15.88;3.40;;;;;;;-144.73;46.56;54040.31;5033517;28;20017;-72
2023/06/14 09:28:16;;;;;;;13.18;3.45;;;;;;;-144.73;45.91;54108.03;5033164;28;20060;-71
2023/06/14 09:30:42;;;;;;;12.95;3.55;;;;;;;-144.73;45.95;54054.69;5033641;28;20078;-72
2023/06/14 09:33:08;;;;;;;10.27;3.75;;;;;;;-144.73;46.53;54073.16;5032959;28;20041;-72
2023/06/14 09:35:34;;;;;;;11.88;3.20;;;;;;;-144.73;46.57;54091.63;5033441;28;20036;-71
2023/06/14 09:37:59;;;;;;;7.38;3.83;;;;;;;-144.73;46.26;54087.53;5032846;28;20045;-71
2023/06/14 09:40:26;;;;;;;13.05;3.42;;;;;;;-144.73;46.40;54067.00;5051001;28;20021;-71
2023/06/14 09:42:52;;;;;;;16.30;3.28;;;;;;;-144.73;46.47;54095.72;5033168;28;20116;-72
2023/06/14 09:45:21;;;;;;;19.33;3.65;;;;;;;-144.73;44.77;54083.41;5033525;28;20087;-72
2023/06/14 09:47:49;;;;;;;11.88;3.08;;;;;;;-144.73;44.57;54095.72;5032487;28;20140;-72
2023/06/14 09:50:14;;;;;;;17.38;4.35;;;;;;;-144.73;44.41;54079.31;5033215;28;20048;-72
2023/06/14 09:52:43;;;;;;;9.30;3.10;;;;;;;-144.73;44.97;54085.47;5050837;28;20056;-73
2023/06/14 09:55:12;;;;;;;9.77;3.15;;;;;;;-144.73;43.81;54067.00;5050534;28;20051;-73
2023/06/14 09:57:42;;;;;;;11.45;3.58;;;;;;;-144.73;43.04;54106.00;5033141;28;20036;-73
2023/06/14 10:00:11;;;;;;;10.50;3.63;;;;;;;-144.73;42.85;54103.94;5033279;28;20028;-72
2023/06/14 10:02:38;;;;;;;7.32;3.50;;;;;;;-144.73;42.97;54034.16;5050264;28;20172;-72
2023/06/14 10:05:09;;;;;;;11.65;3.35;;;;;;;-144.73;41.68;54046.47;5033205;28;20017;-71
2023/06/14 10:07:47;;;;;;;11.95;3.90;;;;;;;-144.73;42.13;54034.16;5032424;28;20037;-72
2023/06/14 10:10:13;;;;;;;11.18;2.72;;;;;;;-144.73;41.22;54101.88;5032732;28;20143;-73
2023/06/14 10:12:39;;;;;;;13.07;3.38;;;;;;;-144.73;42.73;54099.84;5032032;28;20075;-71
2023/06/14 10:15:10;;;;;;;21.20;3.30;;;;;;;-144.73;42.80;54058.78;5032796;28;20055;-73
2023/06/14 10:17:55;;;;;;;5.35;3.00;;;;;;;-144.73;42.46;54067.00;5032589;28;20116;-73
2023/06/14 10:20:49;;;;;;;17.13;3.20;;;;;;;-144.73;41.58;54067.00;5050690;28;20467;-71
2023/06/14 10:23:21;;;;;;;7.53;4.05;;;;;;;-144.73;40.49;54050.59;5049342;28;20148;-72
2023/06/14 10:25:50;;;;;;;11.10;3.85;;;;;;;-144.73;40.78;54075.22;5032508;28;20021;-74
2023/06/14 10:28:17;;;;;;;11.45;3.10;;;;;;;-144.73;40.89;54060.84;5049823;28;20032;-72
2023/06/14 10:31:07;;;;;;;13.68;3.28;;;;;;;-144.73;40.44;54071.09;5065559;28;20129;-72
2023/06/14 10:33:34;;;;;;;17.42;3.55;;;;;;;-144.73;40.42;54120.34;5032043;28;20049;-72
2023/06/14 10:36:21;;;;;;;8.38;3.70;;;;;;;-144.73;40.79;54032.13;5032416;28;20037;-72
2023/06/14 10:38:57;;;;;;;17.15;3.55;;;;;;;-144.73;39.95;54062.91;5031408;28;20029;-72
2023/06/14 10:41:22;;;;;;;12.43;3.17;;;;;;;-144.73;39.31;54044.44;5032347;28;20086;-72
2023/06/14 10:43:48;;;;;;;10.32;3.67;;;;;;;-144.73;38.54;54042.38;5065129;28;20100;-72
2023/06/14 10:46:17;;;;;;;6.90;2.95;;;;;;;-144.73;38.45;54112.16;5065506;28;20033;-72
2023/06/14 10:48:45;;;;;;;4.57;3.08;;;;;;;-144.73;38.97;54097.78;5030959;28;20116;-72
2023/06/14 10:51:21;;;;;;;13.13;4.60;;;;;;;-144.73;40.16;54054.69;5032041;28;20025;-72
2023/06/14 10:53:51;;;;;;;8.32;3.70;;;;;;;-144.73;40.63;54091.63;5049110;28;20037;-72
2023/06/14 10:56:30;;;;;;;18.42;3.38;;;;;;;-144.73;39.88;54050.59;5032017;28;20029;-72
2023/06/14 10:58:57;;;;;;;7.20;2.92;;;;;;;-144.73;40.25;54099.84;5031694;28;20045;-72
2023/06/14 11:01:36;;;;;;;14.52;3.10;;;;;;;-144.73;38.99;54058.78;5054914;28;20035;-73
2023/06/14 11:04:10;;;;;;;18.30;3.78;;;;;;;-144.73;38.16;54046.47;5018613;28;20045;-73
2023/06/14 11:06:46;;;;;;;22.40;3.25;;;;;;;-144.73;38.47;54058.78;5048908;28;20028;-73
2023/06/14 11:09:23;;;;;;;17.65;3.47;;;;;;;-144.73;38.22;54087.53;5065547;28;20048;-73